createdAt,value
2022-08-07T00:02:35.524Z,97304.47
2022-08-07T00:04:15.523Z,97299.34
2022-08-07T00:06:52.146Z,97310.88
2022-08-07T00:09:29.138Z,97306.72
2022-08-07T00:12:01.811Z,97300.19
2022-08-07T00:14:41.449Z,97313.09
2022-08-07T00:17:12.359Z,97292.31
2022-08-07T00:20:01.318Z,97302.03
2022-08-07T00:22:35.379Z,97302.88
2022-08-07T00:25:05.055Z,97317.41
2022-08-07T00:27:35.866Z,97317.78
2022-08-07T00:30:28.731Z,97325.28
2022-08-07T00:32:56.532Z,97323.63
2022-08-07T00:35:23.966Z,97326.13
2022-08-07T00:37:55.294Z,97320.16
2022-08-07T00:40:36.682Z,97320.97
2022-08-07T00:43:09.753Z,97325.84
2022-08-07T00:45:38.658Z,97320.72
2022-08-07T00:48:11.006Z,97329.47
2022-08-07T00:50:51.120Z,97333.47
2022-08-07T00:53:21.258Z,97336.38
2022-08-07T00:56:02.795Z,97332.06
2022-08-07T00:58:31.012Z,97325.03
2022-08-07T01:01:00.360Z,97329.44
2022-08-07T01:03:56.438Z,97330.28
2022-08-07T01:06:18.124Z,97332.78
2022-08-07T01:08:53.340Z,97330.28
2022-08-07T01:12:26.539Z,97329.44
2022-08-07T01:14:12.364Z,97331.38
2022-08-07T01:16:47.155Z,97320.56
2022-08-07T01:19:18.785Z,97319.03
2022-08-07T01:21:53.369Z,97317.25
2022-08-07T01:24:23.250Z,97320.56
2022-08-07T01:26:51.720Z,97325.84
2022-08-07T01:29:23.136Z,97323.47
2022-08-07T01:31:50.954Z,97320.72
2022-08-07T01:34:18.680Z,97319.31
2022-08-07T01:36:52.813Z,97318.34
2022-08-07T01:39:39.595Z,97313.34
2022-08-07T01:42:40.058Z,97310.88
2022-08-07T01:44:57.076Z,97318.63
2022-08-07T01:48:19.231Z,97321.66
2022-08-07T01:50:13.116Z,97315.59
2022-08-07T01:52:49.581Z,97325.00
2022-08-07T01:55:25.532Z,97314.72
2022-08-07T01:58:06.428Z,97313.63
2022-08-07T02:00:49.064Z,97311.13
2022-08-07T02:03:26.380Z,97324.72
2022-08-07T02:06:30.814Z,97317.34
2022-08-07T02:08:56.028Z,97327.88
2022-08-07T02:11:30.772Z,97311.41
2022-08-07T02:14:35.435Z,97315.28
2022-08-07T02:17:00.154Z,97311.97
2022-08-07T02:20:06.918Z,97313.31
2022-08-07T02:22:18.566Z,97303.91
2022-08-07T02:24:49.621Z,97310.00
2022-08-07T02:27:22.861Z,97310.41
2022-08-07T02:29:54.578Z,97315.53
2022-08-07T02:32:29.949Z,97305.00
2022-08-07T02:34:58.725Z,97304.59
2022-08-07T02:37:33.925Z,97299.75
2022-08-07T02:40:30.254Z,97300.56
2022-08-07T02:42:56.179Z,97304.59
2022-08-07T02:45:58.462Z,97300.16
2022-08-07T02:48:15.542Z,97292.94
2022-08-07T02:50:45.579Z,97291.97
2022-08-07T02:53:19.561Z,97309.03
2022-08-07T02:56:03.100Z,97295.31
2022-08-07T02:58:34.026Z,97294.63
2022-08-07T03:01:03.945Z,97292.13
2022-08-07T03:03:49.093Z,97284.78
2022-08-07T03:06:26.141Z,97286.56
2022-08-07T03:09:01.896Z,97285.19
2022-08-07T03:11:38.868Z,97285.19
2022-08-07T03:14:20.146Z,97290.44
2022-08-07T03:16:50.117Z,97289.59
2022-08-07T03:19:20.884Z,97289.59
2022-08-07T03:21:50.798Z,97287.94
2022-08-07T03:24:27.047Z,97292.91
2022-08-07T03:27:01.329Z,97287.53
2022-08-07T03:29:33.938Z,97288.06
2022-08-07T03:32:08.327Z,97282.94
2022-08-07T03:34:39.587Z,97291.97
2022-08-07T03:37:18.529Z,97288.34
2022-08-07T03:39:59.922Z,97293.03
2022-08-07T03:42:37.570Z,97289.69
2022-08-07T03:45:06.132Z,97289.81
2022-08-07T03:47:47.832Z,97293.31
2022-08-07T03:50:23.180Z,97284.56
2022-08-07T03:52:52.785Z,97285.56
2022-08-07T03:55:19.948Z,97284.56
2022-08-07T03:58:33.366Z,97283.19
2022-08-07T04:00:46.130Z,97284.28
2022-08-07T04:03:14.538Z,97293.38
2022-08-07T04:05:42.268Z,97294.09
2022-08-07T04:08:11.970Z,97284.97
2022-08-07T04:10:40.166Z,97289.13
2022-08-07T04:13:15.351Z,97294.25
2022-08-07T04:15:45.524Z,97282.47
2022-08-07T04:18:56.178Z,97288.19
2022-08-07T04:21:01.246Z,97291.63
2022-08-07T04:23:43.612Z,97292.47
2022-08-07T04:26:21.640Z,97285.69
2022-08-07T04:28:50.754Z,97284.84
2022-08-07T04:31:38.389Z,97294.66
2022-08-07T04:34:16.446Z,97293.00
2022-08-07T04:36:49.487Z,97292.16
2022-08-07T04:39:18.674Z,97294.66
2022-08-07T04:41:53.132Z,97295.22
2022-08-07T04:44:22.167Z,97299.25
2022-08-07T04:47:07.791Z,97294.69
2022-08-07T04:49:58.221Z,97302.84
2022-08-07T04:52:51.141Z,97296.50
2022-08-07T04:58:11.835Z,97306.88
2022-08-07T04:58:29.355Z,97308.28
2022-08-07T05:01:22.640Z,97308.03
2022-08-07T05:04:12.271Z,97314.94
2022-08-07T05:06:53.830Z,97320.19
2022-08-07T05:09:45.674Z,97310.19
2022-08-07T05:12:27.430Z,97321.88
2022-08-07T05:15:04.866Z,97316.88
2022-08-07T05:17:51.643Z,97318.00
2022-08-07T05:20:26.396Z,97319.53
2022-08-07T05:22:57.107Z,97320.94
2022-08-07T05:25:54.501Z,97325.66
2022-08-07T05:28:23.086Z,97321.63
2022-08-07T05:30:52.577Z,97322.06
2022-08-07T05:33:24.018Z,97323.31
2022-08-07T05:35:55.349Z,97318.50
2022-08-07T05:39:00.644Z,97335.25
2022-08-07T05:41:12.349Z,97325.16
2022-08-07T05:44:07.705Z,97328.88
2022-08-07T05:46:35.418Z,97322.78
2022-08-07T05:49:11.606Z,97334.44
2022-08-07T05:51:40.750Z,97339.28
2022-08-07T05:54:30.001Z,97332.53
2022-08-07T05:56:58.897Z,97335.44
2022-08-07T05:59:27.407Z,97334.75
2022-08-07T06:01:59.363Z,97339.19
2022-08-07T06:04:30.155Z,97345.00
2022-08-07T06:07:03.626Z,97334.72
2022-08-07T06:10:03.749Z,97336.13
2022-08-07T06:12:31.858Z,97334.75
2022-08-07T06:15:05.854Z,97337.63
2022-08-07T06:17:38.004Z,97327.50
2022-08-07T06:20:25.162Z,97335.13
2022-08-07T06:23:25.023Z,97327.63
2022-08-07T06:25:54.281Z,97337.06
2022-08-07T06:28:27.670Z,97343.72
2022-08-07T06:30:58.376Z,97343.28
2022-08-07T06:33:26.338Z,97346.31
2022-08-07T06:36:06.871Z,97345.75
2022-08-07T06:38:58.875Z,97354.38
2022-08-07T06:42:00.417Z,97351.59
2022-08-07T06:44:21.781Z,97353.38
2022-08-07T06:46:53.473Z,97351.03
2022-08-07T06:49:50.802Z,97352.66
2022-08-07T06:52:31.987Z,97354.88
2022-08-07T06:55:33.100Z,97343.63
2022-08-07T06:57:57.679Z,97341.09
2022-08-07T07:00:31.366Z,97348.13
2022-08-07T07:03:00.971Z,97342.13
2022-08-07T07:06:03.164Z,97339.91
2022-08-07T07:08:26.448Z,97337.94
2022-08-07T07:10:56.570Z,97341.97
2022-08-07T07:13:56.413Z,97337.22
2022-08-07T07:16:27.614Z,97341.09
2022-08-07T07:19:11.101Z,97335.25
2022-08-07T07:22:05.191Z,97342.97
2022-08-07T07:24:56.732Z,97330.97
2022-08-07T07:27:35.733Z,97335.81
2022-08-07T07:30:32.483Z,97338.16
2022-08-07T07:33:06.463Z,97340.22
2022-08-07T07:35:54.240Z,97333.50
2022-08-07T07:38:24.931Z,97334.41
2022-08-07T07:41:01.456Z,97334.38
2022-08-07T07:43:47.942Z,97336.47
2022-08-07T07:46:37.201Z,97335.41
2022-08-07T07:50:32.962Z,97321.28
2022-08-07T07:51:59.612Z,97328.28
2022-08-07T07:54:28.481Z,97329.47
2022-08-07T07:56:59.062Z,97326.22
2022-08-07T07:59:52.266Z,97322.28
2022-08-07T08:02:22.660Z,97322.94
2022-08-07T08:05:04.771Z,97325.59
2022-08-07T08:07:35.583Z,97324.94
2022-08-07T08:10:35.346Z,97310.94
2022-08-07T08:13:06.704Z,97329.06
2022-08-07T08:15:59.214Z,97320.34
2022-08-07T08:18:29.309Z,97324.00
2022-08-07T08:21:00.562Z,97318.06
2022-08-07T08:23:30.728Z,97325.88
2022-08-07T08:26:07.155Z,97323.50
2022-08-07T08:28:45.147Z,97321.53
2022-08-07T08:31:30.221Z,97314.09
2022-08-07T08:34:10.120Z,97333.16
2022-08-07T08:36:41.558Z,97327.06
2022-08-07T08:39:15.316Z,97319.44
2022-08-07T08:41:57.587Z,97311.50
2022-08-07T08:44:44.512Z,97313.34
2022-08-07T08:47:22.814Z,97317.78
2022-08-07T08:50:04.889Z,97311.50
2022-08-07T08:52:40.955Z,97321.28
2022-08-07T08:55:54.532Z,97313.84
2022-08-07T08:58:28.818Z,97304.91
2022-08-07T09:01:15.752Z,97317.41
2022-08-07T09:03:57.008Z,97317.56
2022-08-07T09:06:40.400Z,97313.94
2022-08-07T09:09:36.632Z,97315.09
2022-08-07T09:12:30.444Z,97309.66
2022-08-07T09:16:20.377Z,97309.81
2022-08-07T09:18:32.234Z,97313.97
2022-08-07T09:21:13.862Z,97319.13
2022-08-07T09:24:32.198Z,97313.97
2022-08-07T09:27:13.393Z,97303.91
2022-08-07T09:30:05.650Z,97303.38
2022-08-07T09:33:16.630Z,97299.06
2022-08-07T09:36:22.651Z,97290.47
2022-08-07T09:39:27.298Z,97298.88
2022-08-07T09:42:07.827Z,97286.75
2022-08-07T09:47:51.763Z,97292.38
2022-08-07T09:48:00.441Z,97292.72
2022-08-07T09:50:40.425Z,97290.03
2022-08-07T09:53:12.516Z,97291.66
2022-08-07T09:56:03.556Z,97290.63
2022-08-07T09:59:07.866Z,97283.47
2022-08-07T10:02:09.508Z,97279.31
2022-08-07T10:05:12.096Z,97274.66
2022-08-07T10:07:59.205Z,97267.53
2022-08-07T10:11:07.603Z,97263.69
2022-08-07T10:14:01.959Z,97264.50
2022-08-07T10:16:45.254Z,97244.75
2022-08-07T10:19:31.692Z,97252.66
2022-08-07T10:22:24.946Z,97251.97
2022-08-07T10:25:32.961Z,97255.38
2022-08-07T10:28:50.563Z,97250.50
2022-08-07T10:31:49.698Z,97241.94
2022-08-07T10:34:31.963Z,97241.88
2022-08-07T10:37:12.430Z,97233.06
2022-08-07T10:39:57.602Z,97238.16
2022-08-07T10:42:40.507Z,97239.00
2022-08-07T10:45:44.639Z,97231.13
2022-08-07T10:48:34.605Z,97236.94
2022-08-07T10:51:07.784Z,97236.41
2022-08-07T10:53:51.244Z,97229.78
2022-08-07T10:56:32.786Z,97230.47
2022-08-07T10:59:21.191Z,97230.72
2022-08-07T11:02:11.909Z,97232.56
2022-08-07T11:05:08.537Z,97231.00
2022-08-07T11:07:59.150Z,97225.31
2022-08-07T11:10:38.360Z,97219.19
2022-08-07T11:14:41.943Z,97224.59
2022-08-07T11:16:10.054Z,97225.53
2022-08-07T11:18:41.586Z,97215.88
2022-08-07T11:21:17.110Z,97210.09
2022-08-07T11:23:54.718Z,97209.38
2022-08-07T11:26:27.307Z,97207.16
2022-08-07T11:29:02.023Z,97208.47
2022-08-07T11:31:41.440Z,97205.44
2022-08-07T11:34:19.685Z,97207.72
2022-08-07T11:36:58.052Z,97195.75
2022-08-07T11:39:59.383Z,97196.06
2022-08-07T11:42:40.810Z,97199.66
2022-08-07T11:45:20.658Z,97188.66
2022-08-07T11:48:18.282Z,97196.25
2022-08-07T11:51:41.938Z,97186.66
2022-08-07T11:54:27.215Z,97181.41
2022-08-07T11:57:12.822Z,97174.69
2022-08-07T12:00:10.533Z,97173.66
2022-08-07T12:03:06.786Z,97179.06
2022-08-07T12:06:39.697Z,97172.72
2022-08-07T12:08:57.004Z,97174.19
2022-08-07T12:11:32.293Z,97171.72
2022-08-07T12:14:07.209Z,97166.84
2022-08-07T12:16:51.652Z,97164.63
2022-08-07T12:19:35.550Z,97165.66
2022-08-07T12:22:37.475Z,97165.00
2022-08-07T12:26:03.363Z,97169.25
2022-08-07T12:28:30.868Z,97165.13
2022-08-07T12:31:04.640Z,97154.47
2022-08-07T12:34:00.743Z,97162.44
2022-08-07T12:36:32.793Z,97158.34
2022-08-07T12:39:09.379Z,97154.75
2022-08-07T12:41:54.081Z,97156.44
2022-08-07T12:44:24.511Z,97153.09
2022-08-07T12:47:13.417Z,97164.22
2022-08-07T12:50:04.584Z,97158.91
2022-08-07T12:52:48.780Z,97154.13
2022-08-07T12:55:40.707Z,97158.00
2022-08-07T12:58:13.930Z,97148.16
2022-08-07T13:00:51.012Z,97160.38
2022-08-07T13:03:59.316Z,97154.13
2022-08-07T13:07:01.984Z,97158.19
2022-08-07T13:10:22.028Z,97156.06
2022-08-07T13:12:56.851Z,97154.31
2022-08-07T13:15:40.037Z,97152.94
2022-08-07T13:18:26.582Z,97151.19
2022-08-07T13:21:09.946Z,97154.97
2022-08-07T13:24:01.981Z,97152.47
2022-08-07T13:26:41.886Z,97148.63
2022-08-07T13:29:19.262Z,97151.94
2022-08-07T13:31:57.497Z,97149.72
2022-08-07T13:34:37.657Z,97150.28
2022-08-07T13:37:19.797Z,97150.47
2022-08-07T13:40:35.946Z,97135.66
2022-08-07T13:42:50.363Z,97142.66
2022-08-07T13:46:10.872Z,97137.34
2022-08-07T13:48:10.899Z,97141.47
2022-08-07T13:51:01.280Z,97147.88
2022-08-07T13:53:45.738Z,97132.63
2022-08-07T13:56:35.460Z,97135.59
2022-08-07T13:59:14.254Z,97126.22
2022-08-07T14:02:04.030Z,97125.41
2022-08-07T14:04:49.667Z,97136.59
2022-08-07T14:07:21.420Z,97127.44
2022-08-07T14:10:02.433Z,97120.88
2022-08-07T14:12:53.991Z,97116.69
2022-08-07T14:15:35.020Z,97118.78
2022-08-07T14:18:23.522Z,97126.03
2022-08-07T14:21:08.079Z,97111.53
2022-08-07T14:24:00.200Z,97117.50
2022-08-07T14:26:32.336Z,97116.66
2022-08-07T14:29:10.567Z,97108.31
2022-08-07T14:31:57.962Z,97109.13
2022-08-07T14:34:30.781Z,97119.22
2022-08-07T14:37:01.711Z,97117.19
2022-08-07T14:40:17.597Z,97108.00
2022-08-07T14:42:31.313Z,97109.81
2022-08-07T14:45:22.307Z,97103.09
2022-08-07T14:47:58.734Z,97100.88
2022-08-07T14:50:28.829Z,97102.09
2022-08-07T14:53:08.031Z,97095.13
2022-08-07T14:55:39.330Z,97090.16
2022-08-07T14:58:28.096Z,97088.50
2022-08-07T15:01:00.037Z,97093.66
2022-08-07T15:06:40.005Z,97089.78
2022-08-07T15:09:59.630Z,97100.06
2022-08-07T15:15:07.595Z,97082.19
2022-08-07T15:17:55.151Z,97086.25
2022-08-07T15:20:38.590Z,97089.53
2022-08-07T15:25:02.886Z,97085.84
2022-08-07T15:26:21.299Z,97076.59
2022-08-07T15:28:59.575Z,97088.50
2022-08-07T15:31:57.799Z,97084.84
2022-08-07T15:34:34.407Z,97082.94
2022-08-07T15:37:07.035Z,97082.94
2022-08-07T15:42:51.871Z,97086.81
2022-08-07T15:45:56.340Z,97091.94
2022-08-07T15:48:25.796Z,97080.66
2022-08-07T15:53:53.162Z,97087.00
2022-08-07T15:56:25.149Z,97086.34
2022-08-07T15:58:54.570Z,97090.03
2022-08-07T16:01:38.588Z,97079.78
2022-08-07T16:04:15.084Z,97083.44
2022-08-07T16:06:49.773Z,97076.44
2022-08-07T16:09:42.146Z,97074.81
2022-08-07T16:12:38.949Z,97079.31
2022-08-07T16:15:55.597Z,97080.53
2022-08-07T16:18:43.489Z,97078.22
2022-08-07T16:22:01.498Z,97076.66
2022-08-07T16:24:03.701Z,97073.16
2022-08-07T16:27:18.353Z,97078.03
2022-08-07T16:30:30.341Z,97077.69
2022-08-07T16:34:01.956Z,97080.09
2022-08-07T16:36:31.203Z,97076.69
2022-08-07T16:39:40.276Z,97084.50
2022-08-07T16:42:43.135Z,97078.25
2022-08-07T16:46:33.695Z,97079.19
2022-08-07T16:48:53.829Z,97091.25
2022-08-07T16:52:01.489Z,97089.81
2022-08-07T16:54:58.859Z,97087.47
2022-08-07T16:58:03.545Z,97092.22
2022-08-07T17:00:38.555Z,97098.06
2022-08-07T17:03:57.754Z,97085.66
2022-08-07T17:10:08.198Z,97096.91
2022-08-07T17:13:00.949Z,97101.66
2022-08-07T17:15:43.833Z,97098.88
2022-08-07T17:18:25.928Z,97096.59
2022-08-07T17:20:55.106Z,97095.28
2022-08-07T17:23:43.095Z,97100.31
2022-08-07T17:26:23.347Z,97094.22
2022-08-07T17:29:09.683Z,97103.41
2022-08-07T17:32:31.108Z,97097.16
2022-08-07T17:35:51.742Z,97097.50
2022-08-07T17:38:33.110Z,97086.78
2022-08-07T17:42:02.409Z,97105.69
2022-08-07T17:44:02.822Z,97102.06
2022-08-07T17:46:54.604Z,97097.97
2022-08-07T17:49:30.718Z,97112.06
2022-08-07T17:52:30.944Z,97122.19
2022-08-07T17:55:08.275Z,97116.72
2022-08-07T17:57:58.638Z,97118.75
2022-08-07T18:00:48.943Z,97115.25
2022-08-07T18:03:26.909Z,97128.84
2022-08-07T18:06:09.285Z,97127.03
2022-08-07T18:09:02.024Z,97140.47
2022-08-07T18:12:17.400Z,97137.50
2022-08-07T18:14:37.333Z,97141.78
2022-08-07T18:18:44.900Z,97136.47
2022-08-07T18:21:09.468Z,97146.28
2022-08-07T18:23:41.990Z,97145.94
2022-08-07T18:26:05.307Z,97145.47
2022-08-07T18:29:03.421Z,97158.06
2022-08-07T18:31:51.147Z,97155.09
2022-08-07T18:35:00.526Z,97156.75
2022-08-07T18:38:55.821Z,97152.44
2022-08-07T18:41:02.775Z,97154.44
2022-08-07T18:43:57.409Z,97157.25
2022-08-07T18:46:34.329Z,97159.91
2022-08-07T18:50:32.558Z,97168.34
2022-08-07T18:52:37.519Z,97165.00
2022-08-07T18:55:42.070Z,97160.34
2022-08-07T18:58:14.371Z,97164.19
2022-08-07T19:00:55.074Z,97181.38
2022-08-07T19:03:37.963Z,97165.97
2022-08-07T19:06:16.384Z,97167.00
2022-08-07T19:09:09.513Z,97178.25
2022-08-07T19:12:17.498Z,97181.06
2022-08-07T19:15:00.541Z,97176.25
2022-08-07T19:18:01.141Z,97181.72
2022-08-07T19:20:33.633Z,97174.09
2022-08-07T19:23:17.822Z,97177.72
2022-08-07T19:26:25.326Z,97179.19
2022-08-07T19:30:56.981Z,97188.31
2022-08-07T19:32:07.744Z,97199.22
2022-08-07T19:34:36.374Z,97200.22
2022-08-07T19:37:17.541Z,97207.50
2022-08-07T19:39:57.603Z,97209.66
2022-08-07T19:42:31.341Z,97204.50
2022-08-07T19:45:08.398Z,97212.28
2022-08-07T19:47:41.950Z,97212.72
2022-08-07T19:50:40.801Z,97222.00
2022-08-07T19:54:34.122Z,97221.63
2022-08-07T19:55:59.983Z,97226.41
2022-08-07T19:58:36.656Z,97225.06
2022-08-07T20:01:19.187Z,97229.84
2022-08-07T20:04:08.577Z,97221.56
2022-08-07T20:06:49.926Z,97212.41
2022-08-07T20:10:37.682Z,97225.97
2022-08-07T20:12:34.883Z,97233.06
2022-08-07T20:15:18.721Z,97237.19
2022-08-07T20:18:04.287Z,97227.53
2022-08-07T20:20:39.985Z,97240.09
2022-08-07T20:23:40.264Z,97237.06
2022-08-07T20:26:10.032Z,97236.41
2022-08-07T20:28:44.415Z,97235.38
2022-08-07T20:31:21.323Z,97229.69
2022-08-07T20:34:02.189Z,97242.47
2022-08-07T20:36:51.885Z,97240.56
2022-08-07T20:40:01.487Z,97245.19
2022-08-07T20:42:14.228Z,97245.03
2022-08-07T20:45:33.052Z,97248.50
2022-08-07T20:48:28.270Z,97247.53
2022-08-07T20:51:14.188Z,97245.41
2022-08-07T20:54:02.804Z,97248.19
2022-08-07T20:56:46.231Z,97244.53
2022-08-07T21:00:04.797Z,97250.94
2022-08-07T21:02:23.155Z,97257.34
2022-08-07T21:05:10.046Z,97255.28
2022-08-07T21:08:04.188Z,97245.31
2022-08-07T21:10:40.161Z,97260.72
2022-08-07T21:13:24.690Z,97254.91
2022-08-07T21:16:11.417Z,97257.56
2022-08-07T21:18:46.254Z,97261.31
2022-08-07T21:21:20.174Z,97261.63
2022-08-07T21:24:20.900Z,97263.44
2022-08-07T21:26:59.080Z,97257.81
2022-08-07T21:29:33.553Z,97261.41
2022-08-07T21:32:43.732Z,97259.91
2022-08-07T21:35:01.820Z,97256.44
2022-08-07T21:37:58.714Z,97258.25
2022-08-07T21:40:36.067Z,97260.06
2022-08-07T21:43:11.039Z,97256.44
2022-08-07T21:46:08.559Z,97263.91
2022-08-07T21:48:43.875Z,97255.59
2022-08-07T21:51:32.176Z,97249.34
2022-08-07T21:54:09.312Z,97247.22
2022-08-07T21:56:49.014Z,97245.03
2022-08-07T22:00:02.844Z,97255.91
2022-08-07T22:02:27.745Z,97249.84
2022-08-07T22:05:00.697Z,97258.34
2022-08-07T22:07:57.879Z,97254.03
2022-08-07T22:10:24.679Z,97256.00
2022-08-07T22:12:59.315Z,97256.34
2022-08-07T22:16:44.881Z,97250.09
2022-08-07T22:18:25.874Z,97245.66
2022-08-07T22:21:01.573Z,97239.53
2022-08-07T22:23:43.514Z,97240.88
2022-08-07T22:26:21.797Z,97233.25
2022-08-07T22:28:59.667Z,97238.38
2022-08-07T22:31:55.932Z,97238.69
2022-08-07T22:34:35.655Z,97246.31
2022-08-07T22:37:13.116Z,97250.25
2022-08-07T22:39:52.939Z,97253.72
2022-08-07T22:42:25.863Z,97240.50
2022-08-07T22:44:59.888Z,97233.72
2022-08-07T22:48:31.738Z,97228.44
2022-08-07T22:51:16.397Z,97225.94
2022-08-07T22:54:07.872Z,97228.28
2022-08-07T22:56:56.451Z,97225.78
2022-08-07T22:59:59.209Z,97229.44
2022-08-07T23:02:42.472Z,97227.47
2022-08-07T23:06:10.186Z,97223.31
2022-08-07T23:08:58.611Z,97219.03
2022-08-07T23:11:59.158Z,97212.06
2022-08-07T23:14:58.444Z,97212.59
2022-08-07T23:17:41.748Z,97202.63
2022-08-07T23:20:40.788Z,97205.81
2022-08-07T23:24:05.534Z,97214.72
2022-08-07T23:26:49.973Z,97202.19
2022-08-07T23:30:36.167Z,97200.84
2022-08-07T23:34:21.642Z,97216.97
2022-08-07T23:35:42.530Z,97203.22
2022-08-07T23:38:36.948Z,97194.94
2022-08-07T23:41:33.639Z,97195.59
2022-08-07T23:44:30.966Z,97193.53
2022-08-07T23:47:17.927Z,97197.13
2022-08-07T23:50:35.428Z,97197.94
2022-08-07T23:53:17.517Z,97192.81
2022-08-07T23:55:55.800Z,97191.78
2022-08-07T23:58:32.494Z,97200.81
